sensor_id;sensor_type;location;lat;lon;timestamp;P1;durP1;ratioP1;P2;durP2;ratioP2
60016;SDS011;45869;52.698;6.210;2022-10-31T00:06:30;10.57;;;8.20;;
60016;SDS011;45869;52.698;6.210;2022-10-31T00:08:58;13.38;;;8.65;;
60016;SDS011;45869;52.698;6.210;2022-10-31T00:25:23;13.60;;;8.55;;
60016;SDS011;45869;52.698;6.210;2022-10-31T00:37:58;13.77;;;9.30;;
60016;SDS011;45869;52.698;6.210;2022-10-31T01:33:22;10.93;;;6.65;;
60016;SDS011;45869;52.698;6.210;2022-10-31T01:35:48;9.43;;;6.25;;
60016;SDS011;45869;52.698;6.210;2022-10-31T01:38:14;10.13;;;5.97;;
60016;SDS011;45869;52.698;6.210;2022-10-31T01:40:40;9.25;;;6.35;;
60016;SDS011;45869;52.698;6.210;2022-10-31T01:43:09;8.75;;;5.82;;
60016;SDS011;45869;52.698;6.210;2022-10-31T01:45:37;9.13;;;6.28;;
60016;SDS011;45869;52.698;6.210;2022-10-31T01:48:03;9.45;;;5.80;;
60016;SDS011;45869;52.698;6.210;2022-10-31T01:50:33;8.75;;;5.63;;
60016;SDS011;45869;52.698;6.210;2022-10-31T01:53:01;9.55;;;5.97;;
60016;SDS011;45869;52.698;6.210;2022-10-31T01:57:57;9.57;;;5.97;;
60016;SDS011;45869;52.698;6.210;2022-10-31T02:00:24;10.85;;;5.85;;
60016;SDS011;45869;52.698;6.210;2022-10-31T02:02:51;12.13;;;6.65;;
60016;SDS011;45869;52.698;6.210;2022-10-31T02:05:18;9.88;;;7.32;;
60016;SDS011;45869;52.698;6.210;2022-10-31T02:07:48;12.38;;;7.00;;
60016;SDS011;45869;52.698;6.210;2022-10-31T02:10:16;8.23;;;5.63;;
60016;SDS011;45869;52.698;6.210;2022-10-31T02:12:42;11.15;;;6.38;;
60016;SDS011;45869;52.698;6.210;2022-10-31T02:15:08;8.27;;;5.97;;
60016;SDS011;45869;52.698;6.210;2022-10-31T02:17:34;10.43;;;6.80;;
60016;SDS011;45869;52.698;6.210;2022-10-31T02:20:07;10.13;;;6.22;;
60016;SDS011;45869;52.698;6.210;2022-10-31T02:22:39;8.40;;;5.95;;
60016;SDS011;45869;52.698;6.210;2022-10-31T02:28:11;8.90;;;6.40;;
60016;SDS011;45869;52.698;6.210;2022-10-31T02:31:17;8.30;;;6.18;;
60016;SDS011;45869;52.698;6.210;2022-10-31T02:33:53;8.07;;;5.70;;
60016;SDS011;45869;52.698;6.210;2022-10-31T05:09:03;8.35;;;6.45;;
60016;SDS011;45869;52.698;6.210;2022-10-31T05:11:29;9.07;;;5.55;;
60016;SDS011;45869;52.698;6.210;2022-10-31T05:13:55;9.10;;;6.45;;
60016;SDS011;45869;52.698;6.210;2022-10-31T05:16:21;8.82;;;5.80;;
60016;SDS011;45869;52.698;6.210;2022-10-31T05:18:47;7.97;;;6.22;;
60016;SDS011;45869;52.698;6.210;2022-10-31T05:21:13;7.75;;;6.47;;
60016;SDS011;45869;52.698;6.210;2022-10-31T05:23:39;10.32;;;6.05;;
60016;SDS011;45869;52.698;6.210;2022-10-31T05:26:05;7.80;;;6.05;;
60016;SDS011;45869;52.698;6.210;2022-10-31T05:28:31;11.65;;;7.90;;
60016;SDS011;45869;52.698;6.210;2022-10-31T05:31:12;9.27;;;6.72;;
60016;SDS011;45869;52.698;6.210;2022-10-31T05:33:44;14.63;;;8.85;;
60016;SDS011;45869;52.698;6.210;2022-10-31T05:36:10;10.60;;;7.53;;
60016;SDS011;45869;52.698;6.210;2022-10-31T05:38:36;10.45;;;6.88;;
60016;SDS011;45869;52.698;6.210;2022-10-31T05:41:02;11.95;;;8.07;;
60016;SDS011;45869;52.698;6.210;2022-10-31T05:43:28;9.27;;;7.20;;
60016;SDS011;45869;52.698;6.210;2022-10-31T05:45:55;11.20;;;7.40;;
60016;SDS011;45869;52.698;6.210;2022-10-31T05:48:21;10.73;;;8.27;;
60016;SDS011;45869;52.698;6.210;2022-10-31T05:50:47;9.00;;;7.63;;
60016;SDS011;45869;52.698;6.210;2022-10-31T05:53:14;11.07;;;8.35;;
60016;SDS011;45869;52.698;6.210;2022-10-31T05:55:40;10.23;;;7.88;;
60016;SDS011;45869;52.698;6.210;2022-10-31T05:58:06;11.85;;;8.55;;
60016;SDS011;45869;52.698;6.210;2022-10-31T06:00:32;9.50;;;7.00;;
60016;SDS011;45869;52.698;6.210;2022-10-31T06:03:00;10.18;;;7.75;;
60016;SDS011;45869;52.698;6.210;2022-10-31T06:05:27;10.55;;;7.82;;
60016;SDS011;45869;52.698;6.210;2022-10-31T06:07:53;9.60;;;7.65;;
60016;SDS011;45869;52.698;6.210;2022-10-31T06:10:19;16.30;;;9.20;;
60016;SDS011;45869;52.698;6.210;2022-10-31T06:12:46;12.65;;;9.73;;
60016;SDS011;45869;52.698;6.210;2022-10-31T06:15:12;13.70;;;9.48;;
60016;SDS011;45869;52.698;6.210;2022-10-31T06:17:38;14.02;;;11.07;;
60016;SDS011;45869;52.698;6.210;2022-10-31T06:20:07;12.00;;;8.50;;
60016;SDS011;45869;52.698;6.210;2022-10-31T06:22:33;12.63;;;10.23;;
60016;SDS011;45869;52.698;6.210;2022-10-31T06:24:59;13.23;;;9.23;;
60016;SDS011;45869;52.698;6.210;2022-10-31T06:27:25;10.25;;;8.68;;
60016;SDS011;45869;52.698;6.210;2022-10-31T06:29:51;13.35;;;9.48;;
60016;SDS011;45869;52.698;6.210;2022-10-31T06:32:20;19.88;;;13.77;;
60016;SDS011;45869;52.698;6.210;2022-10-31T06:34:46;16.63;;;11.30;;
60016;SDS011;45869;52.698;6.210;2022-10-31T06:37:15;15.23;;;10.48;;
60016;SDS011;45869;52.698;6.210;2022-10-31T06:39:41;14.02;;;9.85;;
60016;SDS011;45869;52.698;6.210;2022-10-31T06:42:07;13.30;;;11.05;;
60016;SDS011;45869;52.698;6.210;2022-10-31T06:44:33;14.48;;;11.10;;
60016;SDS011;45869;52.698;6.210;2022-10-31T06:46:59;14.23;;;10.80;;
60016;SDS011;45869;52.698;6.210;2022-10-31T06:49:25;15.15;;;10.80;;
60016;SDS011;45869;52.698;6.210;2022-10-31T06:51:51;14.68;;;9.88;;
60016;SDS011;45869;52.698;6.210;2022-10-31T06:54:17;12.73;;;10.07;;
60016;SDS011;45869;52.698;6.210;2022-10-31T06:56:47;14.80;;;11.23;;
60016;SDS011;45869;52.698;6.210;2022-10-31T06:59:13;13.63;;;10.40;;
60016;SDS011;45869;52.698;6.210;2022-10-31T07:01:39;16.83;;;12.45;;
60016;SDS011;45869;52.698;6.210;2022-10-31T07:04:05;13.88;;;10.80;;
60016;SDS011;45869;52.698;6.210;2022-10-31T07:06:34;14.55;;;11.70;;
60016;SDS011;45869;52.698;6.210;2022-10-31T07:09:00;14.15;;;10.50;;
60016;SDS011;45869;52.698;6.210;2022-10-31T07:11:26;14.43;;;10.98;;
60016;SDS011;45869;52.698;6.210;2022-10-31T07:13:52;15.13;;;10.77;;
60016;SDS011;45869;52.698;6.210;2022-10-31T07:16:18;14.07;;;10.15;;
60016;SDS011;45869;52.698;6.210;2022-10-31T07:18:44;12.55;;;10.60;;
60016;SDS011;45869;52.698;6.210;2022-10-31T07:21:10;12.35;;;10.00;;
60016;SDS011;45869;52.698;6.210;2022-10-31T07:23:36;13.80;;;10.23;;
60016;SDS011;45869;52.698;6.210;2022-10-31T07:26:02;18.23;;;14.15;;
60016;SDS011;45869;52.698;6.210;2022-10-31T07:28:28;26.85;;;18.00;;
60016;SDS011;45869;52.698;6.210;2022-10-31T07:30:55;23.50;;;16.20;;
60016;SDS011;45869;52.698;6.210;2022-10-31T07:33:22;21.05;;;15.20;;
60016;SDS011;45869;52.698;6.210;2022-10-31T07:35:48;23.23;;;16.85;;
60016;SDS011;45869;52.698;6.210;2022-10-31T07:38:14;28.25;;;19.60;;
60016;SDS011;45869;52.698;6.210;2022-10-31T07:40:41;22.75;;;15.85;;
60016;SDS011;45869;52.698;6.210;2022-10-31T07:45:33;28.73;;;19.50;;
60016;SDS011;45869;52.698;6.210;2022-10-31T07:47:59;20.55;;;16.15;;
60016;SDS011;45869;52.698;6.210;2022-10-31T07:50:31;22.48;;;16.17;;
60016;SDS011;45869;52.698;6.210;2022-10-31T07:53:00;27.25;;;19.85;;
60016;SDS011;45869;52.698;6.210;2022-10-31T07:55:26;28.70;;;19.35;;
60016;SDS011;45869;52.698;6.210;2022-10-31T07:57:56;27.55;;;19.42;;
60016;SDS011;45869;52.698;6.210;2022-10-31T08:00:35;36.53;;;23.50;;
60016;SDS011;45869;52.698;6.210;2022-10-31T08:03:09;26.60;;;20.13;;
60016;SDS011;45869;52.698;6.210;2022-10-31T08:05:35;33.17;;;23.30;;
60016;SDS011;45869;52.698;6.210;2022-10-31T08:08:02;39.60;;;25.98;;
60016;SDS011;45869;52.698;6.210;2022-10-31T08:10:28;33.67;;;23.17;;
60016;SDS011;45869;52.698;6.210;2022-10-31T08:12:55;37.08;;;26.08;;
60016;SDS011;45869;52.698;6.210;2022-10-31T08:15:22;36.83;;;25.17;;
60016;SDS011;45869;52.698;6.210;2022-10-31T08:17:48;35.10;;;23.60;;
60016;SDS011;45869;52.698;6.210;2022-10-31T08:26:13;34.63;;;23.85;;
60016;SDS011;45869;52.698;6.210;2022-10-31T08:28:39;29.58;;;20.48;;
60016;SDS011;45869;52.698;6.210;2022-10-31T08:31:05;35.42;;;26.40;;
60016;SDS011;45869;52.698;6.210;2022-10-31T08:33:31;31.45;;;22.38;;
60016;SDS011;45869;52.698;6.210;2022-10-31T08:36:00;33.70;;;23.00;;
60016;SDS011;45869;52.698;6.210;2022-10-31T08:38:26;35.78;;;24.67;;
60016;SDS011;45869;52.698;6.210;2022-10-31T08:40:52;34.67;;;24.38;;
60016;SDS011;45869;52.698;6.210;2022-10-31T08:43:18;39.67;;;26.80;;
60016;SDS011;45869;52.698;6.210;2022-10-31T08:45:47;34.40;;;24.38;;
60016;SDS011;45869;52.698;6.210;2022-10-31T08:48:13;43.15;;;28.98;;
60016;SDS011;45869;52.698;6.210;2022-10-31T08:50:40;35.38;;;26.08;;
60016;SDS011;45869;52.698;6.210;2022-10-31T08:53:07;38.78;;;27.35;;
60016;SDS011;45869;52.698;6.210;2022-10-31T08:55:35;52.13;;;32.40;;
60016;SDS011;45869;52.698;6.210;2022-10-31T08:58:01;62.60;;;37.35;;
60016;SDS011;45869;52.698;6.210;2022-10-31T09:00:28;55.80;;;34.42;;
60016;SDS011;45869;52.698;6.210;2022-10-31T09:02:57;57.15;;;33.28;;
60016;SDS011;45869;52.698;6.210;2022-10-31T09:05:24;49.75;;;31.25;;
60016;SDS011;45869;52.698;6.210;2022-10-31T09:07:50;41.10;;;28.30;;
60016;SDS011;45869;52.698;6.210;2022-10-31T09:10:16;45.25;;;30.25;;
60016;SDS011;45869;52.698;6.210;2022-10-31T09:12:42;45.15;;;29.25;;
60016;SDS011;45869;52.698;6.210;2022-10-31T09:15:08;42.60;;;28.85;;
60016;SDS011;45869;52.698;6.210;2022-10-31T09:17:34;37.95;;;25.67;;
60016;SDS011;45869;52.698;6.210;2022-10-31T09:20:00;36.45;;;25.00;;
60016;SDS011;45869;52.698;6.210;2022-10-31T09:22:26;41.92;;;27.25;;
60016;SDS011;45869;52.698;6.210;2022-10-31T09:24:52;39.13;;;25.55;;
60016;SDS011;45869;52.698;6.210;2022-10-31T09:27:18;33.95;;;24.60;;
60016;SDS011;45869;52.698;6.210;2022-10-31T09:29:44;42.65;;;26.73;;
60016;SDS011;45869;52.698;6.210;2022-10-31T09:32:10;38.85;;;26.60;;
60016;SDS011;45869;52.698;6.210;2022-10-31T09:34:36;36.65;;;24.70;;
60016;SDS011;45869;52.698;6.210;2022-10-31T09:37:05;36.05;;;25.80;;
60016;SDS011;45869;52.698;6.210;2022-10-31T09:39:30;34.75;;;23.00;;
60016;SDS011;45869;52.698;6.210;2022-10-31T10:34:41;25.55;;;16.38;;
60016;SDS011;45869;52.698;6.210;2022-10-31T10:37:15;23.52;;;15.98;;
60016;SDS011;45869;52.698;6.210;2022-10-31T10:39:45;23.00;;;16.80;;
60016;SDS011;45869;52.698;6.210;2022-10-31T10:42:15;21.50;;;14.82;;
60016;SDS011;45869;52.698;6.210;2022-10-31T10:45:06;18.95;;;14.27;;
60016;SDS011;45869;52.698;6.210;2022-10-31T10:47:57;19.73;;;14.13;;
60016;SDS011;45869;52.698;6.210;2022-10-31T10:50:31;17.83;;;12.88;;
60016;SDS011;45869;52.698;6.210;2022-10-31T10:53:05;19.33;;;12.07;;
60016;SDS011;45869;52.698;6.210;2022-10-31T10:55:40;17.70;;;12.50;;
60016;SDS011;45869;52.698;6.210;2022-10-31T10:58:12;18.80;;;11.57;;
60016;SDS011;45869;52.698;6.210;2022-10-31T11:00:39;16.90;;;11.10;;
60016;SDS011;45869;52.698;6.210;2022-10-31T11:03:06;19.77;;;11.07;;
60016;SDS011;45869;52.698;6.210;2022-10-31T11:18:32;18.27;;;11.07;;
60016;SDS011;45869;52.698;6.210;2022-10-31T11:21:00;18.38;;;12.05;;
60016;SDS011;45869;52.698;6.210;2022-10-31T11:23:28;16.80;;;11.48;;
60016;SDS011;45869;52.698;6.210;2022-10-31T11:25:55;16.58;;;11.40;;
60016;SDS011;45869;52.698;6.210;2022-10-31T11:28:21;15.18;;;10.90;;
60016;SDS011;45869;52.698;6.210;2022-10-31T11:30:49;18.23;;;11.20;;
60016;SDS011;45869;52.698;6.210;2022-10-31T11:33:17;16.75;;;11.32;;
60016;SDS011;45869;52.698;6.210;2022-10-31T11:35:43;17.70;;;11.02;;
60016;SDS011;45869;52.698;6.210;2022-10-31T11:38:12;17.02;;;11.40;;
60016;SDS011;45869;52.698;6.210;2022-10-31T11:40:39;18.65;;;11.32;;
60016;SDS011;45869;52.698;6.210;2022-10-31T11:43:19;16.55;;;11.55;;
60016;SDS011;45869;52.698;6.210;2022-10-31T11:45:45;18.15;;;11.63;;
60016;SDS011;45869;52.698;6.210;2022-10-31T11:48:18;18.33;;;12.05;;
60016;SDS011;45869;52.698;6.210;2022-10-31T11:50:52;18.98;;;12.32;;
60016;SDS011;45869;52.698;6.210;2022-10-31T11:53:23;18.58;;;11.50;;
60016;SDS011;45869;52.698;6.210;2022-10-31T11:58:29;16.88;;;11.93;;
60016;SDS011;45869;52.698;6.210;2022-10-31T12:00:56;17.67;;;11.90;;
60016;SDS011;45869;52.698;6.210;2022-10-31T12:06:06;17.92;;;12.18;;
60016;SDS011;45869;52.698;6.210;2022-10-31T12:08:34;17.63;;;12.23;;
60016;SDS011;45869;52.698;6.210;2022-10-31T12:13:33;17.50;;;11.48;;
60016;SDS011;45869;52.698;6.210;2022-10-31T12:16:18;17.75;;;11.10;;
60016;SDS011;45869;52.698;6.210;2022-10-31T12:34:13;17.00;;;11.05;;
60016;SDS011;45869;52.698;6.210;2022-10-31T12:36:59;15.80;;;10.38;;
60016;SDS011;45869;52.698;6.210;2022-10-31T12:42:19;16.50;;;10.23;;
60016;SDS011;45869;52.698;6.210;2022-10-31T12:55:08;16.00;;;9.60;;
60016;SDS011;45869;52.698;6.210;2022-10-31T12:57:40;17.38;;;8.90;;
60016;SDS011;45869;52.698;6.210;2022-10-31T13:00:17;13.30;;;9.13;;
60016;SDS011;45869;52.698;6.210;2022-10-31T13:05:18;15.30;;;8.68;;
60016;SDS011;45869;52.698;6.210;2022-10-31T13:10:31;13.48;;;8.05;;
60016;SDS011;45869;52.698;6.210;2022-10-31T13:15:35;14.50;;;7.70;;
60016;SDS011;45869;52.698;6.210;2022-10-31T13:18:06;14.75;;;8.35;;
60016;SDS011;45869;52.698;6.210;2022-10-31T13:20:40;12.43;;;7.97;;
60016;SDS011;45869;52.698;6.210;2022-10-31T13:23:43;15.13;;;8.00;;
60016;SDS011;45869;52.698;6.210;2022-10-31T13:26:09;13.90;;;7.85;;
60016;SDS011;45869;52.698;6.210;2022-10-31T13:28:48;13.93;;;7.90;;
60016;SDS011;45869;52.698;6.210;2022-10-31T13:31:14;13.80;;;7.68;;
60016;SDS011;45869;52.698;6.210;2022-10-31T13:33:43;13.30;;;8.25;;
60016;SDS011;45869;52.698;6.210;2022-10-31T13:36:23;14.32;;;8.30;;
60016;SDS011;45869;52.698;6.210;2022-10-31T13:38:52;13.40;;;8.45;;
60016;SDS011;45869;52.698;6.210;2022-10-31T13:46:22;14.68;;;8.43;;
60016;SDS011;45869;52.698;6.210;2022-10-31T13:48:49;13.15;;;8.73;;
60016;SDS011;45869;52.698;6.210;2022-10-31T13:51:23;10.52;;;7.70;;
60016;SDS011;45869;52.698;6.210;2022-10-31T13:56:26;12.43;;;7.80;;
60016;SDS011;45869;52.698;6.210;2022-10-31T13:59:14;13.65;;;8.15;;
60016;SDS011;45869;52.698;6.210;2022-10-31T14:02:12;11.25;;;7.82;;
60016;SDS011;45869;52.698;6.210;2022-10-31T14:04:37;13.88;;;8.27;;
60016;SDS011;45869;52.698;6.210;2022-10-31T14:07:08;14.27;;;7.70;;
60016;SDS011;45869;52.698;6.210;2022-10-31T14:12:08;12.40;;;8.38;;
60016;SDS011;45869;52.698;6.210;2022-10-31T14:14:39;13.80;;;8.70;;
60016;SDS011;45869;52.698;6.210;2022-10-31T14:17:12;11.70;;;7.82;;
60016;SDS011;45869;52.698;6.210;2022-10-31T14:19:41;16.08;;;8.70;;
60016;SDS011;45869;52.698;6.210;2022-10-31T14:22:19;13.93;;;8.88;;
60016;SDS011;45869;52.698;6.210;2022-10-31T14:24:45;14.45;;;8.45;;
60016;SDS011;45869;52.698;6.210;2022-10-31T14:29:46;13.70;;;8.93;;
60016;SDS011;45869;52.698;6.210;2022-10-31T14:34:43;14.13;;;8.57;;
60016;SDS011;45869;52.698;6.210;2022-10-31T14:40:41;16.05;;;8.80;;
60016;SDS011;45869;52.698;6.210;2022-10-31T14:43:15;15.25;;;9.82;;
60016;SDS011;45869;52.698;6.210;2022-10-31T14:50:54;13.45;;;8.70;;
60016;SDS011;45869;52.698;6.210;2022-10-31T14:53:35;15.85;;;9.02;;
60016;SDS011;45869;52.698;6.210;2022-10-31T14:56:02;13.15;;;8.20;;
60016;SDS011;45869;52.698;6.210;2022-10-31T14:58:33;14.88;;;8.80;;
60016;SDS011;45869;52.698;6.210;2022-10-31T15:01:00;13.20;;;9.10;;
60016;SDS011;45869;52.698;6.210;2022-10-31T15:03:29;14.07;;;9.23;;
60016;SDS011;45869;52.698;6.210;2022-10-31T15:05:59;13.70;;;9.38;;
60016;SDS011;45869;52.698;6.210;2022-10-31T15:08:30;16.70;;;9.65;;
60016;SDS011;45869;52.698;6.210;2022-10-31T15:10:56;14.88;;;9.32;;
60016;SDS011;45869;52.698;6.210;2022-10-31T15:13:22;14.63;;;8.98;;
60016;SDS011;45869;52.698;6.210;2022-10-31T15:15:52;15.18;;;9.45;;
60016;SDS011;45869;52.698;6.210;2022-10-31T15:18:24;13.55;;;9.10;;
60016;SDS011;45869;52.698;6.210;2022-10-31T15:20:51;15.30;;;9.15;;
60016;SDS011;45869;52.698;6.210;2022-10-31T15:23:27;14.57;;;9.75;;
60016;SDS011;45869;52.698;6.210;2022-10-31T15:26:01;16.15;;;10.00;;
60016;SDS011;45869;52.698;6.210;2022-10-31T15:28:28;14.55;;;9.57;;
60016;SDS011;45869;52.698;6.210;2022-10-31T15:30:56;15.13;;;10.05;;
60016;SDS011;45869;52.698;6.210;2022-10-31T15:33:24;16.70;;;10.60;;
60016;SDS011;45869;52.698;6.210;2022-10-31T15:35:57;17.48;;;10.75;;
60016;SDS011;45869;52.698;6.210;2022-10-31T15:38:27;17.05;;;10.48;;
60016;SDS011;45869;52.698;6.210;2022-10-31T15:40:58;16.90;;;10.60;;
60016;SDS011;45869;52.698;6.210;2022-10-31T15:43:25;17.80;;;10.82;;
60016;SDS011;45869;52.698;6.210;2022-10-31T15:45:51;15.23;;;10.30;;
60016;SDS011;45869;52.698;6.210;2022-10-31T15:48:26;14.75;;;9.85;;
60016;SDS011;45869;52.698;6.210;2022-10-31T15:50:55;18.20;;;10.15;;
60016;SDS011;45869;52.698;6.210;2022-10-31T15:53:32;15.73;;;9.20;;
60016;SDS011;45869;52.698;6.210;2022-10-31T15:56:10;14.48;;;9.18;;
60016;SDS011;45869;52.698;6.210;2022-10-31T15:58:44;15.02;;;10.13;;
60016;SDS011;45869;52.698;6.210;2022-10-31T16:01:29;16.95;;;10.35;;
60016;SDS011;45869;52.698;6.210;2022-10-31T16:03:59;16.50;;;9.75;;
60016;SDS011;45869;52.698;6.210;2022-10-31T16:08:58;13.88;;;9.95;;
60016;SDS011;45869;52.698;6.210;2022-10-31T16:11:34;12.95;;;10.13;;
60016;SDS011;45869;52.698;6.210;2022-10-31T16:14:14;16.83;;;10.95;;
60016;SDS011;45869;52.698;6.210;2022-10-31T16:16:42;16.45;;;10.07;;
60016;SDS011;45869;52.698;6.210;2022-10-31T16:19:14;14.50;;;9.93;;
60016;SDS011;45869;52.698;6.210;2022-10-31T16:21:42;15.68;;;10.02;;
60016;SDS011;45869;52.698;6.210;2022-10-31T16:24:14;15.23;;;9.75;;
60016;SDS011;45869;52.698;6.210;2022-10-31T16:26:41;16.65;;;10.55;;
60016;SDS011;45869;52.698;6.210;2022-10-31T16:29:24;15.68;;;9.95;;
60016;SDS011;45869;52.698;6.210;2022-10-31T16:31:50;15.13;;;10.03;;
60016;SDS011;45869;52.698;6.210;2022-10-31T16:34:18;15.48;;;9.57;;
60016;SDS011;45869;52.698;6.210;2022-10-31T16:36:45;13.95;;;9.50;;
60016;SDS011;45869;52.698;6.210;2022-10-31T16:39:11;16.27;;;10.05;;
60016;SDS011;45869;52.698;6.210;2022-10-31T16:41:39;15.85;;;10.02;;
60016;SDS011;45869;52.698;6.210;2022-10-31T16:44:14;16.20;;;9.80;;
60016;SDS011;45869;52.698;6.210;2022-10-31T16:46:41;17.17;;;10.27;;
60016;SDS011;45869;52.698;6.210;2022-10-31T16:52:29;15.73;;;10.35;;
60016;SDS011;45869;52.698;6.210;2022-10-31T16:54:55;15.73;;;10.02;;
60016;SDS011;45869;52.698;6.210;2022-10-31T16:57:24;18.15;;;10.25;;
60016;SDS011;45869;52.698;6.210;2022-10-31T16:59:52;15.38;;;9.85;;
60016;SDS011;45869;52.698;6.210;2022-10-31T17:02:24;18.45;;;10.48;;
60016;SDS011;45869;52.698;6.210;2022-10-31T17:04:50;16.88;;;11.27;;
60016;SDS011;45869;52.698;6.210;2022-10-31T17:07:16;17.63;;;11.32;;
60016;SDS011;45869;52.698;6.210;2022-10-31T17:09:44;17.63;;;10.48;;
60016;SDS011;45869;52.698;6.210;2022-10-31T17:12:49;16.38;;;10.98;;
60016;SDS011;45869;52.698;6.210;2022-10-31T17:15:20;16.52;;;11.10;;
60016;SDS011;45869;52.698;6.210;2022-10-31T17:20:24;23.63;;;11.70;;
60016;SDS011;45869;52.698;6.210;2022-10-31T17:22:50;18.23;;;12.00;;
60016;SDS011;45869;52.698;6.210;2022-10-31T17:25:18;19.25;;;11.63;;
60016;SDS011;45869;52.698;6.210;2022-10-31T17:27:45;23.17;;;12.25;;
60016;SDS011;45869;52.698;6.210;2022-10-31T17:30:14;18.88;;;11.65;;
60016;SDS011;45869;52.698;6.210;2022-10-31T17:32:42;19.50;;;12.45;;
60016;SDS011;45869;52.698;6.210;2022-10-31T17:35:08;18.30;;;12.15;;
60016;SDS011;45869;52.698;6.210;2022-10-31T17:37:35;17.02;;;11.50;;
60016;SDS011;45869;52.698;6.210;2022-10-31T17:40:01;19.05;;;11.98;;
60016;SDS011;45869;52.698;6.210;2022-10-31T17:42:27;16.25;;;11.55;;
60016;SDS011;45869;52.698;6.210;2022-10-31T17:44:53;20.63;;;12.07;;
60016;SDS011;45869;52.698;6.210;2022-10-31T17:47:19;17.58;;;12.07;;
60016;SDS011;45869;52.698;6.210;2022-10-31T17:49:45;19.73;;;12.32;;
60016;SDS011;45869;52.698;6.210;2022-10-31T17:52:11;18.63;;;12.98;;
60016;SDS011;45869;52.698;6.210;2022-10-31T17:54:37;18.85;;;12.50;;
60016;SDS011;45869;52.698;6.210;2022-10-31T17:57:03;18.25;;;12.60;;
60016;SDS011;45869;52.698;6.210;2022-10-31T17:59:35;22.92;;;12.98;;
60016;SDS011;45869;52.698;6.210;2022-10-31T18:02:10;18.42;;;12.90;;
60016;SDS011;45869;52.698;6.210;2022-10-31T18:07:49;25.35;;;14.20;;
60016;SDS011;45869;52.698;6.210;2022-10-31T18:10:15;20.67;;;13.75;;
60016;SDS011;45869;52.698;6.210;2022-10-31T18:12:41;20.63;;;13.68;;
60016;SDS011;45869;52.698;6.210;2022-10-31T18:15:08;20.90;;;13.90;;
60016;SDS011;45869;52.698;6.210;2022-10-31T18:17:36;23.15;;;14.25;;
60016;SDS011;45869;52.698;6.210;2022-10-31T18:20:02;27.05;;;14.90;;
60016;SDS011;45869;52.698;6.210;2022-10-31T18:22:28;24.00;;;14.77;;
60016;SDS011;45869;52.698;6.210;2022-10-31T18:24:54;21.70;;;13.90;;
60016;SDS011;45869;52.698;6.210;2022-10-31T18:27:20;20.60;;;15.07;;
60016;SDS011;45869;52.698;6.210;2022-10-31T18:29:49;19.95;;;14.60;;
60016;SDS011;45869;52.698;6.210;2022-10-31T18:32:15;22.05;;;15.13;;
60016;SDS011;45869;52.698;6.210;2022-10-31T18:34:42;25.77;;;15.68;;
60016;SDS011;45869;52.698;6.210;2022-10-31T18:37:08;22.70;;;15.48;;
60016;SDS011;45869;52.698;6.210;2022-10-31T18:39:34;23.75;;;15.00;;
60016;SDS011;45869;52.698;6.210;2022-10-31T18:42:00;23.40;;;15.02;;
60016;SDS011;45869;52.698;6.210;2022-10-31T18:44:26;26.73;;;15.43;;
60016;SDS011;45869;52.698;6.210;2022-10-31T18:46:52;24.67;;;15.38;;
60016;SDS011;45869;52.698;6.210;2022-10-31T18:49:18;22.67;;;14.75;;
60016;SDS011;45869;52.698;6.210;2022-10-31T18:51:51;24.80;;;15.50;;
60016;SDS011;45869;52.698;6.210;2022-10-31T18:54:17;23.75;;;15.70;;
60016;SDS011;45869;52.698;6.210;2022-10-31T18:56:51;23.05;;;15.68;;
60016;SDS011;45869;52.698;6.210;2022-10-31T18:59:16;23.55;;;15.00;;
60016;SDS011;45869;52.698;6.210;2022-10-31T19:01:45;24.20;;;15.20;;
60016;SDS011;45869;52.698;6.210;2022-10-31T19:04:14;22.95;;;16.10;;
60016;SDS011;45869;52.698;6.210;2022-10-31T19:06:43;27.15;;;16.60;;
60016;SDS011;45869;52.698;6.210;2022-10-31T19:09:09;24.25;;;15.30;;
60016;SDS011;45869;52.698;6.210;2022-10-31T19:11:35;25.55;;;15.93;;
60016;SDS011;45869;52.698;6.210;2022-10-31T19:14:02;27.33;;;16.25;;
60016;SDS011;45869;52.698;6.210;2022-10-31T19:16:28;26.88;;;16.35;;
60016;SDS011;45869;52.698;6.210;2022-10-31T19:21:28;25.60;;;15.70;;
60016;SDS011;45869;52.698;6.210;2022-10-31T19:23:56;22.50;;;15.63;;
60016;SDS011;45869;52.698;6.210;2022-10-31T19:26:22;28.65;;;16.88;;
60016;SDS011;45869;52.698;6.210;2022-10-31T19:28:49;24.55;;;16.25;;
60016;SDS011;45869;52.698;6.210;2022-10-31T19:31:15;29.05;;;17.38;;
60016;SDS011;45869;52.698;6.210;2022-10-31T19:33:45;24.38;;;15.85;;
60016;SDS011;45869;52.698;6.210;2022-10-31T19:45:00;27.05;;;16.15;;
60016;SDS011;45869;52.698;6.210;2022-10-31T19:47:27;26.63;;;16.73;;
60016;SDS011;45869;52.698;6.210;2022-10-31T19:49:53;28.40;;;17.75;;
60016;SDS011;45869;52.698;6.210;2022-10-31T19:52:19;31.48;;;17.35;;
60016;SDS011;45869;52.698;6.210;2022-10-31T19:54:45;25.65;;;16.77;;
60016;SDS011;45869;52.698;6.210;2022-10-31T19:57:11;30.38;;;16.38;;
60016;SDS011;45869;52.698;6.210;2022-10-31T19:59:37;24.40;;;16.58;;
60016;SDS011;45869;52.698;6.210;2022-10-31T20:02:03;30.55;;;16.83;;
60016;SDS011;45869;52.698;6.210;2022-10-31T20:04:29;25.02;;;16.90;;
60016;SDS011;45869;52.698;6.210;2022-10-31T20:06:55;24.98;;;16.05;;
60016;SDS011;45869;52.698;6.210;2022-10-31T20:09:21;30.42;;;18.48;;
60016;SDS011;45869;52.698;6.210;2022-10-31T20:11:47;24.92;;;17.67;;
60016;SDS011;45869;52.698;6.210;2022-10-31T20:14:14;23.80;;;16.80;;
60016;SDS011;45869;52.698;6.210;2022-10-31T20:45:18;29.58;;;18.35;;
60016;SDS011;45869;52.698;6.210;2022-10-31T20:47:46;28.33;;;17.35;;
60016;SDS011;45869;52.698;6.210;2022-10-31T20:50:12;28.08;;;18.75;;
60016;SDS011;45869;52.698;6.210;2022-10-31T20:52:38;30.52;;;18.67;;
60016;SDS011;45869;52.698;6.210;2022-10-31T20:57:43;30.48;;;18.50;;
60016;SDS011;45869;52.698;6.210;2022-10-31T21:00:09;30.33;;;19.17;;
60016;SDS011;45869;52.698;6.210;2022-10-31T21:02:38;30.73;;;19.17;;
60016;SDS011;45869;52.698;6.210;2022-10-31T21:05:08;31.17;;;19.13;;
60016;SDS011;45869;52.698;6.210;2022-10-31T21:17:57;35.17;;;18.75;;
60016;SDS011;45869;52.698;6.210;2022-10-31T21:20:23;28.52;;;18.30;;
60016;SDS011;45869;52.698;6.210;2022-10-31T21:22:49;30.40;;;18.10;;
60016;SDS011;45869;52.698;6.210;2022-10-31T21:25:15;26.52;;;17.95;;
60016;SDS011;45869;52.698;6.210;2022-10-31T21:27:41;26.98;;;17.73;;
60016;SDS011;45869;52.698;6.210;2022-10-31T21:30:10;31.38;;;18.70;;
60016;SDS011;45869;52.698;6.210;2022-10-31T21:32:36;27.55;;;17.75;;
60016;SDS011;45869;52.698;6.210;2022-10-31T21:35:03;30.23;;;17.83;;
60016;SDS011;45869;52.698;6.210;2022-10-31T21:37:29;27.38;;;17.58;;
60016;SDS011;45869;52.698;6.210;2022-10-31T21:39:55;26.92;;;16.70;;
60016;SDS011;45869;52.698;6.210;2022-10-31T21:42:21;27.35;;;17.67;;
60016;SDS011;45869;52.698;6.210;2022-10-31T21:48:10;25.67;;;15.98;;
60016;SDS011;45869;52.698;6.210;2022-10-31T21:50:39;26.15;;;16.30;;
60016;SDS011;45869;52.698;6.210;2022-10-31T21:53:05;29.08;;;16.35;;
60016;SDS011;45869;52.698;6.210;2022-10-31T21:55:49;28.58;;;16.52;;
60016;SDS011;45869;52.698;6.210;2022-10-31T21:58:15;27.65;;;15.93;;
60016;SDS011;45869;52.698;6.210;2022-10-31T22:00:41;27.05;;;15.80;;
60016;SDS011;45869;52.698;6.210;2022-10-31T22:03:08;24.52;;;15.95;;
60016;SDS011;45869;52.698;6.210;2022-10-31T22:05:34;24.42;;;15.77;;